sensor_id;sensor_type;location;lat;lon;timestamp;temperature;humidity
20845;DHT22;10583;49.084;8.646;2024-01-25T00:02:26;10.10;99.90
20845;DHT22;10583;49.084;8.646;2024-01-25T00:04:53;10.10;99.90
20845;DHT22;10583;49.084;8.646;2024-01-25T00:07:19;10.10;99.90
20845;DHT22;10583;49.084;8.646;2024-01-25T00:09:47;10.10;99.90
20845;DHT22;10583;49.084;8.646;2024-01-25T00:12:14;10.10;99.90
20845;DHT22;10583;49.084;8.646;2024-01-25T00:14:41;10.00;99.90
20845;DHT22;10583;49.084;8.646;2024-01-25T00:17:07;10.00;99.90
20845;DHT22;10583;49.084;8.646;2024-01-25T00:19:34;10.00;99.90
20845;DHT22;10583;49.084;8.646;2024-01-25T00:22:01;10.00;99.90
20845;DHT22;10583;49.084;8.646;2024-01-25T00:24:27;10.00;99.90
20845;DHT22;10583;49.084;8.646;2024-01-25T00:26:55;10.00;99.90
20845;DHT22;10583;49.084;8.646;2024-01-25T00:29:22;10.00;99.90
20845;DHT22;10583;49.084;8.646;2024-01-25T00:31:49;10.00;99.90
20845;DHT22;10583;49.084;8.646;2024-01-25T00:34:16;10.00;99.90
20845;DHT22;10583;49.084;8.646;2024-01-25T00:36:43;10.00;99.90
20845;DHT22;10583;49.084;8.646;2024-01-25T00:39:13;10.00;99.90
20845;DHT22;10583;49.084;8.646;2024-01-25T00:41:41;10.00;99.90
20845;DHT22;10583;49.084;8.646;2024-01-25T00:44:10;10.00;99.90
20845;DHT22;10583;49.084;8.646;2024-01-25T00:46:37;10.00;99.90
20845;DHT22;10583;49.084;8.646;2024-01-25T00:49:04;10.00;99.90
20845;DHT22;10583;49.084;8.646;2024-01-25T00:51:32;10.00;99.90
20845;DHT22;10583;49.084;8.646;2024-01-25T00:53:59;10.00;99.90
20845;DHT22;10583;49.084;8.646;2024-01-25T00:56:26;10.00;99.90
20845;DHT22;10583;49.084;8.646;2024-01-25T00:58:54;10.00;99.90
20845;DHT22;10583;49.084;8.646;2024-01-25T01:01:24;10.00;99.90
20845;DHT22;10583;49.084;8.646;2024-01-25T01:03:52;10.10;99.90
20845;DHT22;10583;49.084;8.646;2024-01-25T01:06:20;10.00;99.90
20845;DHT22;10583;49.084;8.646;2024-01-25T01:08:48;10.00;99.90
20845;DHT22;10583;49.084;8.646;2024-01-25T01:11:14;10.00;99.90
20845;DHT22;10583;49.084;8.646;2024-01-25T01:13:41;10.10;99.90
20845;DHT22;10583;49.084;8.646;2024-01-25T01:16:08;10.00;99.90
20845;DHT22;10583;49.084;8.646;2024-01-25T01:18:36;10.10;99.90
20845;DHT22;10583;49.084;8.646;2024-01-25T01:21:04;10.10;99.90
20845;DHT22;10583;49.084;8.646;2024-01-25T01:23:30;10.10;99.90
20845;DHT22;10583;49.084;8.646;2024-01-25T01:25:57;10.00;99.90
20845;DHT22;10583;49.084;8.646;2024-01-25T01:28:24;10.00;99.90
20845;DHT22;10583;49.084;8.646;2024-01-25T01:30:50;10.00;99.90
20845;DHT22;10583;49.084;8.646;2024-01-25T01:33:17;10.00;99.90
20845;DHT22;10583;49.084;8.646;2024-01-25T01:35:45;10.00;99.90
20845;DHT22;10583;49.084;8.646;2024-01-25T01:38:12;10.10;99.90
20845;DHT22;10583;49.084;8.646;2024-01-25T01:40:38;10.00;99.90
20845;DHT22;10583;49.084;8.646;2024-01-25T01:43:05;10.00;99.90
20845;DHT22;10583;49.084;8.646;2024-01-25T01:45:32;10.00;99.90
20845;DHT22;10583;49.084;8.646;2024-01-25T01:47:59;10.00;99.90
20845;DHT22;10583;49.084;8.646;2024-01-25T01:50:26;10.00;99.90
20845;DHT22;10583;49.084;8.646;2024-01-25T01:52:55;10.00;99.90
20845;DHT22;10583;49.084;8.646;2024-01-25T01:55:21;10.00;99.90
20845;DHT22;10583;49.084;8.646;2024-01-25T01:57:49;10.00;99.90
20845;DHT22;10583;49.084;8.646;2024-01-25T02:00:16;10.00;99.90
20845;DHT22;10583;49.084;8.646;2024-01-25T02:02:43;10.00;99.90
20845;DHT22;10583;49.084;8.646;2024-01-25T02:05:10;10.00;99.90
20845;DHT22;10583;49.084;8.646;2024-01-25T02:07:37;10.00;99.90
20845;DHT22;10583;49.084;8.646;2024-01-25T02:10:08;9.90;99.90
20845;DHT22;10583;49.084;8.646;2024-01-25T02:12:34;9.90;99.90
20845;DHT22;10583;49.084;8.646;2024-01-25T02:15:01;9.90;99.90
20845;DHT22;10583;49.084;8.646;2024-01-25T02:17:29;9.90;99.90
20845;DHT22;10583;49.084;8.646;2024-01-25T02:19:55;9.90;99.90
20845;DHT22;10583;49.084;8.646;2024-01-25T02:22:23;9.90;99.90
20845;DHT22;10583;49.084;8.646;2024-01-25T02:24:50;9.90;99.90
20845;DHT22;10583;49.084;8.646;2024-01-25T02:27:17;9.90;99.90
20845;DHT22;10583;49.084;8.646;2024-01-25T02:29:43;9.90;99.90
20845;DHT22;10583;49.084;8.646;2024-01-25T02:32:10;9.90;99.90
20845;DHT22;10583;49.084;8.646;2024-01-25T02:34:36;9.90;99.90
20845;DHT22;10583;49.084;8.646;2024-01-25T02:37:03;9.90;99.90
20845;DHT22;10583;49.084;8.646;2024-01-25T02:39:32;9.90;99.90
20845;DHT22;10583;49.084;8.646;2024-01-25T02:41:59;9.90;99.90
20845;DHT22;10583;49.084;8.646;2024-01-25T02:44:25;9.90;99.90
20845;DHT22;10583;49.084;8.646;2024-01-25T02:46:52;9.90;99.90
20845;DHT22;10583;49.084;8.646;2024-01-25T02:49:18;9.90;99.90
20845;DHT22;10583;49.084;8.646;2024-01-25T02:51:45;9.80;99.90
20845;DHT22;10583;49.084;8.646;2024-01-25T02:54:12;9.90;99.90
20845;DHT22;10583;49.084;8.646;2024-01-25T02:56:40;9.90;99.90
20845;DHT22;10583;49.084;8.646;2024-01-25T02:59:06;9.80;99.90
20845;DHT22;10583;49.084;8.646;2024-01-25T03:01:38;9.80;99.90
20845;DHT22;10583;49.084;8.646;2024-01-25T03:04:05;9.80;99.90
20845;DHT22;10583;49.084;8.646;2024-01-25T03:06:32;9.80;99.90
20845;DHT22;10583;49.084;8.646;2024-01-25T03:08:59;9.80;99.90
20845;DHT22;10583;49.084;8.646;2024-01-25T03:11:25;9.80;99.90
20845;DHT22;10583;49.084;8.646;2024-01-25T03:13:53;9.80;99.90
20845;DHT22;10583;49.084;8.646;2024-01-25T03:16:20;9.70;99.90
20845;DHT22;10583;49.084;8.646;2024-01-25T03:18:46;9.70;99.90
20845;DHT22;10583;49.084;8.646;2024-01-25T03:21:13;9.70;99.90
20845;DHT22;10583;49.084;8.646;2024-01-25T03:23:40;9.70;99.90
20845;DHT22;10583;49.084;8.646;2024-01-25T03:26:07;9.70;99.90
20845;DHT22;10583;49.084;8.646;2024-01-25T03:28:34;9.80;99.90
20845;DHT22;10583;49.084;8.646;2024-01-25T03:31:03;9.70;99.90
20845;DHT22;10583;49.084;8.646;2024-01-25T03:33:29;9.70;99.90
20845;DHT22;10583;49.084;8.646;2024-01-25T03:36:00;9.70;99.90
20845;DHT22;10583;49.084;8.646;2024-01-25T03:38:27;9.70;99.90
20845;DHT22;10583;49.084;8.646;2024-01-25T03:40:54;9.70;99.90
20845;DHT22;10583;49.084;8.646;2024-01-25T03:43:21;9.70;99.90
20845;DHT22;10583;49.084;8.646;2024-01-25T03:45:48;9.70;99.90
20845;DHT22;10583;49.084;8.646;2024-01-25T03:48:17;9.70;99.90
20845;DHT22;10583;49.084;8.646;2024-01-25T03:50:43;9.70;99.90
20845;DHT22;10583;49.084;8.646;2024-01-25T03:53:11;9.60;99.90
20845;DHT22;10583;49.084;8.646;2024-01-25T03:55:37;9.70;99.90
20845;DHT22;10583;49.084;8.646;2024-01-25T03:58:04;9.60;99.90
20845;DHT22;10583;49.084;8.646;2024-01-25T04:00:31;9.60;99.90
20845;DHT22;10583;49.084;8.646;2024-01-25T04:02:57;9.60;99.90
20845;DHT22;10583;49.084;8.646;2024-01-25T04:05:25;9.60;99.90
20845;DHT22;10583;49.084;8.646;2024-01-25T04:07:52;9.60;99.90
20845;DHT22;10583;49.084;8.646;2024-01-25T04:10:19;9.60;99.90
20845;DHT22;10583;49.084;8.646;2024-01-25T04:12:45;9.60;99.90
20845;DHT22;10583;49.084;8.646;2024-01-25T04:15:12;9.60;99.90
20845;DHT22;10583;49.084;8.646;2024-01-25T04:17:39;9.60;99.90
20845;DHT22;10583;49.084;8.646;2024-01-25T04:20:07;9.60;99.90
20845;DHT22;10583;49.084;8.646;2024-01-25T04:22:35;9.60;99.90
20845;DHT22;10583;49.084;8.646;2024-01-25T04:25:02;9.60;99.90
20845;DHT22;10583;49.084;8.646;2024-01-25T04:27:30;9.50;99.90
20845;DHT22;10583;49.084;8.646;2024-01-25T04:29:56;9.50;99.90
20845;DHT22;10583;49.084;8.646;2024-01-25T04:32:23;9.50;99.90
20845;DHT22;10583;49.084;8.646;2024-01-25T04:34:50;9.50;99.90
20845;DHT22;10583;49.084;8.646;2024-01-25T04:37:16;9.40;99.90
20845;DHT22;10583;49.084;8.646;2024-01-25T04:39:44;9.40;99.90
20845;DHT22;10583;49.084;8.646;2024-01-25T04:42:11;9.40;99.90
20845;DHT22;10583;49.084;8.646;2024-01-25T04:44:38;9.30;99.90
20845;DHT22;10583;49.084;8.646;2024-01-25T04:47:04;9.20;99.90
20845;DHT22;10583;49.084;8.646;2024-01-25T04:49:31;9.20;99.90
20845;DHT22;10583;49.084;8.646;2024-01-25T04:51:58;9.20;99.90
20845;DHT22;10583;49.084;8.646;2024-01-25T04:54:24;9.20;99.90
20845;DHT22;10583;49.084;8.646;2024-01-25T04:56:52;9.20;99.90
20845;DHT22;10583;49.084;8.646;2024-01-25T04:59:20;9.10;99.90
20845;DHT22;10583;49.084;8.646;2024-01-25T05:01:46;9.10;99.90
20845;DHT22;10583;49.084;8.646;2024-01-25T05:04:13;9.00;99.90
20845;DHT22;10583;49.084;8.646;2024-01-25T05:06:40;8.90;99.90
20845;DHT22;10583;49.084;8.646;2024-01-25T05:09:06;8.90;99.90
20845;DHT22;10583;49.084;8.646;2024-01-25T05:11:37;8.90;99.90
20845;DHT22;10583;49.084;8.646;2024-01-25T05:14:05;8.90;99.90
20845;DHT22;10583;49.084;8.646;2024-01-25T05:16:32;8.80;99.90
20845;DHT22;10583;49.084;8.646;2024-01-25T05:18:59;8.80;99.90
20845;DHT22;10583;49.084;8.646;2024-01-25T05:21:25;8.70;99.90
20845;DHT22;10583;49.084;8.646;2024-01-25T05:23:52;8.70;99.90
20845;DHT22;10583;49.084;8.646;2024-01-25T05:26:18;8.70;99.90
20845;DHT22;10583;49.084;8.646;2024-01-25T05:28:45;8.70;99.90
20845;DHT22;10583;49.084;8.646;2024-01-25T05:31:13;8.60;99.90
20845;DHT22;10583;49.084;8.646;2024-01-25T05:33:41;8.60;99.90
20845;DHT22;10583;49.084;8.646;2024-01-25T05:36:08;8.60;99.90
20845;DHT22;10583;49.084;8.646;2024-01-25T05:38:35;8.60;99.90
20845;DHT22;10583;49.084;8.646;2024-01-25T05:41:02;8.50;99.90
20845;DHT22;10583;49.084;8.646;2024-01-25T05:43:28;8.50;99.90
20845;DHT22;10583;49.084;8.646;2024-01-25T05:45:55;8.40;99.90
20845;DHT22;10583;49.084;8.646;2024-01-25T05:48:23;8.40;99.90
20845;DHT22;10583;49.084;8.646;2024-01-25T05:50:50;8.40;99.90
20845;DHT22;10583;49.084;8.646;2024-01-25T05:53:17;8.40;99.90
20845;DHT22;10583;49.084;8.646;2024-01-25T05:55:45;8.40;99.90
20845;DHT22;10583;49.084;8.646;2024-01-25T05:58:12;8.40;99.90
20845;DHT22;10583;49.084;8.646;2024-01-25T06:00:38;8.40;99.90
20845;DHT22;10583;49.084;8.646;2024-01-25T06:03:05;8.40;99.90
20845;DHT22;10583;49.084;8.646;2024-01-25T06:05:33;8.30;99.90
20845;DHT22;10583;49.084;8.646;2024-01-25T06:08:00;8.30;99.90
20845;DHT22;10583;49.084;8.646;2024-01-25T06:10:26;8.20;99.90
20845;DHT22;10583;49.084;8.646;2024-01-25T06:12:53;8.20;99.90
20845;DHT22;10583;49.084;8.646;2024-01-25T06:15:20;8.10;99.90
20845;DHT22;10583;49.084;8.646;2024-01-25T06:17:46;8.10;99.90
20845;DHT22;10583;49.084;8.646;2024-01-25T06:20:13;8.00;99.90
20845;DHT22;10583;49.084;8.646;2024-01-25T06:22:41;8.10;99.90
20845;DHT22;10583;49.084;8.646;2024-01-25T06:25:08;8.10;99.90
20845;DHT22;10583;49.084;8.646;2024-01-25T06:27:35;8.00;99.90
20845;DHT22;10583;49.084;8.646;2024-01-25T06:30:01;8.00;99.90
20845;DHT22;10583;49.084;8.646;2024-01-25T06:32:28;8.00;99.90
20845;DHT22;10583;49.084;8.646;2024-01-25T06:34:55;8.00;99.90
20845;DHT22;10583;49.084;8.646;2024-01-25T06:37:21;7.90;99.90
20845;DHT22;10583;49.084;8.646;2024-01-25T06:39:49;7.90;99.90
20845;DHT22;10583;49.084;8.646;2024-01-25T06:42:16;7.90;99.90
20845;DHT22;10583;49.084;8.646;2024-01-25T06:44:43;7.90;99.90
20845;DHT22;10583;49.084;8.646;2024-01-25T06:47:10;7.90;99.90
20845;DHT22;10583;49.084;8.646;2024-01-25T06:49:37;7.90;99.90
20845;DHT22;10583;49.084;8.646;2024-01-25T06:52:04;7.90;99.90
20845;DHT22;10583;49.084;8.646;2024-01-25T06:54:31;7.90;99.90
20845;DHT22;10583;49.084;8.646;2024-01-25T06:56:59;7.80;99.90
20845;DHT22;10583;49.084;8.646;2024-01-25T06:59:25;7.80;99.90
20845;DHT22;10583;49.084;8.646;2024-01-25T07:01:52;7.80;99.90
20845;DHT22;10583;49.084;8.646;2024-01-25T07:04:19;7.70;99.90
20845;DHT22;10583;49.084;8.646;2024-01-25T07:06:45;7.70;99.90
20845;DHT22;10583;49.084;8.646;2024-01-25T07:09:12;7.70;99.90
20845;DHT22;10583;49.084;8.646;2024-01-25T07:11:39;7.60;99.90
20845;DHT22;10583;49.084;8.646;2024-01-25T07:14:07;7.60;99.90
20845;DHT22;10583;49.084;8.646;2024-01-25T07:16:33;7.60;99.90
20845;DHT22;10583;49.084;8.646;2024-01-25T07:19:00;7.60;99.90
20845;DHT22;10583;49.084;8.646;2024-01-25T07:21:27;7.50;99.90
20845;DHT22;10583;49.084;8.646;2024-01-25T07:23:53;7.50;99.90
20845;DHT22;10583;49.084;8.646;2024-01-25T07:26:20;7.50;99.90
20845;DHT22;10583;49.084;8.646;2024-01-25T07:28:47;7.50;99.90
20845;DHT22;10583;49.084;8.646;2024-01-25T07:31:16;7.50;99.90
20845;DHT22;10583;49.084;8.646;2024-01-25T07:33:42;7.50;99.90
20845;DHT22;10583;49.084;8.646;2024-01-25T07:36:09;7.50;99.90
20845;DHT22;10583;49.084;8.646;2024-01-25T07:38:35;7.50;99.90
20845;DHT22;10583;49.084;8.646;2024-01-25T07:41:02;7.50;99.90
20845;DHT22;10583;49.084;8.646;2024-01-25T07:43:29;7.50;99.90
20845;DHT22;10583;49.084;8.646;2024-01-25T07:45:55;7.50;99.90
20845;DHT22;10583;49.084;8.646;2024-01-25T07:48:23;7.50;99.90
20845;DHT22;10583;49.084;8.646;2024-01-25T07:50:50;7.50;99.90
20845;DHT22;10583;49.084;8.646;2024-01-25T07:53:17;7.50;99.90
20845;DHT22;10583;49.084;8.646;2024-01-25T07:55:44;7.40;99.90
20845;DHT22;10583;49.084;8.646;2024-01-25T07:58:10;7.30;99.90
20845;DHT22;10583;49.084;8.646;2024-01-25T08:00:37;7.30;99.90
20845;DHT22;10583;49.084;8.646;2024-01-25T08:03:04;7.30;99.90
20845;DHT22;10583;49.084;8.646;2024-01-25T08:05:32;7.30;99.90
20845;DHT22;10583;49.084;8.646;2024-01-25T08:07:59;7.30;99.90
20845;DHT22;10583;49.084;8.646;2024-01-25T08:10:25;7.40;99.90
20845;DHT22;10583;49.084;8.646;2024-01-25T08:12:52;7.50;99.90
20845;DHT22;10583;49.084;8.646;2024-01-25T08:15:19;7.60;99.90
20845;DHT22;10583;49.084;8.646;2024-01-25T08:17:45;7.70;99.90
20845;DHT22;10583;49.084;8.646;2024-01-25T08:20:12;7.80;99.90
20845;DHT22;10583;49.084;8.646;2024-01-25T08:22:41;8.00;99.90
20845;DHT22;10583;49.084;8.646;2024-01-25T08:25:08;8.10;99.90
20845;DHT22;10583;49.084;8.646;2024-01-25T08:27:35;8.20;99.90
20845;DHT22;10583;49.084;8.646;2024-01-25T08:30:02;8.30;99.90
20845;DHT22;10583;49.084;8.646;2024-01-25T08:32:29;8.40;99.90
20845;DHT22;10583;49.084;8.646;2024-01-25T08:34:55;8.60;99.90
20845;DHT22;10583;49.084;8.646;2024-01-25T08:37:22;8.70;99.90
20845;DHT22;10583;49.084;8.646;2024-01-25T08:39:50;8.90;99.90
20845;DHT22;10583;49.084;8.646;2024-01-25T08:42:17;9.00;99.90
20845;DHT22;10583;49.084;8.646;2024-01-25T08:44:44;9.10;99.90
20845;DHT22;10583;49.084;8.646;2024-01-25T08:47:14;9.20;99.90
20845;DHT22;10583;49.084;8.646;2024-01-25T08:49:41;9.30;99.90
20845;DHT22;10583;49.084;8.646;2024-01-25T08:52:08;9.40;99.90
20845;DHT22;10583;49.084;8.646;2024-01-25T08:54:35;9.40;99.90
20845;DHT22;10583;49.084;8.646;2024-01-25T08:57:04;9.60;99.90
20845;DHT22;10583;49.084;8.646;2024-01-25T08:59:32;9.80;99.90
20845;DHT22;10583;49.084;8.646;2024-01-25T09:02:00;10.00;99.90
20845;DHT22;10583;49.084;8.646;2024-01-25T09:04:27;10.10;99.90
20845;DHT22;10583;49.084;8.646;2024-01-25T09:06:54;10.20;99.90
20845;DHT22;10583;49.084;8.646;2024-01-25T09:09:21;10.20;99.90
20845;DHT22;10583;49.084;8.646;2024-01-25T09:11:47;10.30;99.90
20845;DHT22;10583;49.084;8.646;2024-01-25T09:14:15;10.30;99.90
20845;DHT22;10583;49.084;8.646;2024-01-25T09:16:42;10.40;99.90
20845;DHT22;10583;49.084;8.646;2024-01-25T09:19:09;10.70;99.90
20845;DHT22;10583;49.084;8.646;2024-01-25T09:21:38;10.90;99.90
20845;DHT22;10583;49.084;8.646;2024-01-25T09:24:05;10.90;99.90
20845;DHT22;10583;49.084;8.646;2024-01-25T09:26:32;11.00;99.90
20845;DHT22;10583;49.084;8.646;2024-01-25T09:28:58;11.20;99.90
20845;DHT22;10583;49.084;8.646;2024-01-25T09:31:26;11.40;99.90
20845;DHT22;10583;49.084;8.646;2024-01-25T09:33:53;11.50;99.90
20845;DHT22;10583;49.084;8.646;2024-01-25T09:36:20;11.60;99.90
20845;DHT22;10583;49.084;8.646;2024-01-25T09:38:47;11.40;99.90
20845;DHT22;10583;49.084;8.646;2024-01-25T09:41:14;11.40;99.90
20845;DHT22;10583;49.084;8.646;2024-01-25T09:43:41;11.40;99.90
20845;DHT22;10583;49.084;8.646;2024-01-25T09:46:13;11.50;99.90
20845;DHT22;10583;49.084;8.646;2024-01-25T09:48:41;11.70;99.90
20845;DHT22;10583;49.084;8.646;2024-01-25T09:51:09;11.90;99.90
20845;DHT22;10583;49.084;8.646;2024-01-25T09:53:39;12.00;99.90
20845;DHT22;10583;49.084;8.646;2024-01-25T09:56:07;12.10;99.90
20845;DHT22;10583;49.084;8.646;2024-01-25T09:58:38;11.90;99.90
20845;DHT22;10583;49.084;8.646;2024-01-25T10:01:08;11.70;99.90
20845;DHT22;10583;49.084;8.646;2024-01-25T10:03:35;11.50;99.90
20845;DHT22;10583;49.084;8.646;2024-01-25T10:06:05;11.30;99.90
20845;DHT22;10583;49.084;8.646;2024-01-25T10:08:32;11.10;99.90
20845;DHT22;10583;49.084;8.646;2024-01-25T10:10:58;11.00;99.90
20845;DHT22;10583;49.084;8.646;2024-01-25T10:13:26;10.80;99.90
20845;DHT22;10583;49.084;8.646;2024-01-25T10:15:52;10.90;99.90
20845;DHT22;10583;49.084;8.646;2024-01-25T10:18:19;11.10;99.90
20845;DHT22;10583;49.084;8.646;2024-01-25T10:20:46;11.20;99.90
20845;DHT22;10583;49.084;8.646;2024-01-25T10:23:14;11.40;99.90
20845;DHT22;10583;49.084;8.646;2024-01-25T10:25:41;11.50;99.90
20845;DHT22;10583;49.084;8.646;2024-01-25T10:28:08;11.80;99.90
20845;DHT22;10583;49.084;8.646;2024-01-25T10:30:35;12.20;99.90
20845;DHT22;10583;49.084;8.646;2024-01-25T10:33:02;12.60;99.90
20845;DHT22;10583;49.084;8.646;2024-01-25T10:35:31;13.00;99.90
20845;DHT22;10583;49.084;8.646;2024-01-25T10:37:58;13.40;99.90
20845;DHT22;10583;49.084;8.646;2024-01-25T10:40:27;13.50;99.90
20845;DHT22;10583;49.084;8.646;2024-01-25T10:42:55;13.70;99.90
20845;DHT22;10583;49.084;8.646;2024-01-25T10:45:22;13.80;99.90
20845;DHT22;10583;49.084;8.646;2024-01-25T10:47:49;13.60;99.90
20845;DHT22;10583;49.084;8.646;2024-01-25T10:50:16;13.70;99.90
20845;DHT22;10583;49.084;8.646;2024-01-25T10:52:43;13.60;99.90
20845;DHT22;10583;49.084;8.646;2024-01-25T10:55:11;13.30;99.90
20845;DHT22;10583;49.084;8.646;2024-01-25T10:57:43;13.10;99.90
20845;DHT22;10583;49.084;8.646;2024-01-25T11:00:11;13.20;99.90
20845;DHT22;10583;49.084;8.646;2024-01-25T11:02:40;13.50;99.90
20845;DHT22;10583;49.084;8.646;2024-01-25T11:05:10;13.90;99.90
20845;DHT22;10583;49.084;8.646;2024-01-25T11:07:41;14.00;99.90
20845;DHT22;10583;49.084;8.646;2024-01-25T11:10:16;13.80;99.90
20845;DHT22;10583;49.084;8.646;2024-01-25T11:12:51;13.60;99.90
20845;DHT22;10583;49.084;8.646;2024-01-25T11:15:21;13.50;99.90
20845;DHT22;10583;49.084;8.646;2024-01-25T11:17:53;13.60;99.90
20845;DHT22;10583;49.084;8.646;2024-01-25T11:20:21;13.50;99.90
20845;DHT22;10583;49.084;8.646;2024-01-25T11:22:48;13.50;99.90
20845;DHT22;10583;49.084;8.646;2024-01-25T11:25:21;13.50;99.90
20845;DHT22;10583;49.084;8.646;2024-01-25T11:27:48;13.70;99.90
20845;DHT22;10583;49.084;8.646;2024-01-25T11:30:18;13.60;99.90
20845;DHT22;10583;49.084;8.646;2024-01-25T11:32:46;13.40;99.90
20845;DHT22;10583;49.084;8.646;2024-01-25T11:35:13;13.40;99.90
20845;DHT22;10583;49.084;8.646;2024-01-25T11:37:42;13.50;99.90
20845;DHT22;10583;49.084;8.646;2024-01-25T11:40:10;13.60;99.90
20845;DHT22;10583;49.084;8.646;2024-01-25T11:42:37;13.70;99.90
20845;DHT22;10583;49.084;8.646;2024-01-25T11:45:05;13.80;99.90
20845;DHT22;10583;49.084;8.646;2024-01-25T11:47:33;13.80;99.90
20845;DHT22;10583;49.084;8.646;2024-01-25T11:50:00;13.80;99.90
20845;DHT22;10583;49.084;8.646;2024-01-25T11:52:27;13.80;99.90
20845;DHT22;10583;49.084;8.646;2024-01-25T11:54:54;14.00;99.90
20845;DHT22;10583;49.084;8.646;2024-01-25T11:57:21;14.20;99.90
20845;DHT22;10583;49.084;8.646;2024-01-25T11:59:47;13.90;99.90
20845;DHT22;10583;49.084;8.646;2024-01-25T12:02:15;13.80;99.90
20845;DHT22;10583;49.084;8.646;2024-01-25T12:04:43;13.80;99.90
20845;DHT22;10583;49.084;8.646;2024-01-25T12:07:12;14.10;99.90
20845;DHT22;10583;49.084;8.646;2024-01-25T12:09:39;14.60;99.90
20845;DHT22;10583;49.084;8.646;2024-01-25T12:12:06;14.90;99.90
20845;DHT22;10583;49.084;8.646;2024-01-25T12:14:33;14.90;99.90
20845;DHT22;10583;49.084;8.646;2024-01-25T12:17:00;14.90;99.90
20845;DHT22;10583;49.084;8.646;2024-01-25T12:19:29;15.20;99.90
20845;DHT22;10583;49.084;8.646;2024-01-25T12:21:57;15.30;99.90
20845;DHT22;10583;49.084;8.646;2024-01-25T12:24:24;15.50;99.90
20845;DHT22;10583;49.084;8.646;2024-01-25T12:26:50;15.30;99.90
20845;DHT22;10583;49.084;8.646;2024-01-25T12:29:17;15.30;99.90
20845;DHT22;10583;49.084;8.646;2024-01-25T12:31:43;15.50;99.90
20845;DHT22;10583;49.084;8.646;2024-01-25T12:34:13;15.30;99.90
20845;DHT22;10583;49.084;8.646;2024-01-25T12:36:41;15.30;99.90
20845;DHT22;10583;49.084;8.646;2024-01-25T12:39:09;15.10;99.90
20845;DHT22;10583;49.084;8.646;2024-01-25T12:41:36;15.10;99.90
20845;DHT22;10583;49.084;8.646;2024-01-25T12:44:03;15.40;99.90
20845;DHT22;10583;49.084;8.646;2024-01-25T12:46:30;15.40;99.90
20845;DHT22;10583;49.084;8.646;2024-01-25T12:48:57;15.50;99.90
20845;DHT22;10583;49.084;8.646;2024-01-25T12:51:24;15.30;99.90
20845;DHT22;10583;49.084;8.646;2024-01-25T12:53:50;15.20;99.90
20845;DHT22;10583;49.084;8.646;2024-01-25T12:56:18;14.60;99.90
20845;DHT22;10583;49.084;8.646;2024-01-25T12:58:45;14.30;99.90
20845;DHT22;10583;49.084;8.646;2024-01-25T13:01:12;14.00;99.90
20845;DHT22;10583;49.084;8.646;2024-01-25T13:03:38;13.90;99.90
20845;DHT22;10583;49.084;8.646;2024-01-25T13:06:05;13.90;99.90
20845;DHT22;10583;49.084;8.646;2024-01-25T13:08:32;13.90;99.90
20845;DHT22;10583;49.084;8.646;2024-01-25T13:10:59;13.90;99.90
20845;DHT22;10583;49.084;8.646;2024-01-25T13:13:27;13.70;99.90
20845;DHT22;10583;49.084;8.646;2024-01-25T13:15:54;13.70;99.90
20845;DHT22;10583;49.084;8.646;2024-01-25T13:18:20;13.90;99.90
20845;DHT22;10583;49.084;8.646;2024-01-25T13:20:47;13.70;99.90
20845;DHT22;10583;49.084;8.646;2024-01-25T13:23:14;13.40;99.90
20845;DHT22;10583;49.084;8.646;2024-01-25T13:25:41;13.20;99.90
20845;DHT22;10583;49.084;8.646;2024-01-25T13:28:07;13.20;99.90
20845;DHT22;10583;49.084;8.646;2024-01-25T13:30:35;13.20;99.90
20845;DHT22;10583;49.084;8.646;2024-01-25T13:33:02;13.20;99.90
20845;DHT22;10583;49.084;8.646;2024-01-25T13:35:29;12.90;99.90
20845;DHT22;10583;49.084;8.646;2024-01-25T13:37:56;12.80;99.90
20845;DHT22;10583;49.084;8.646;2024-01-25T13:40:26;12.80;99.90
20845;DHT22;10583;49.084;8.646;2024-01-25T13:42:53;12.70;99.90
20845;DHT22;10583;49.084;8.646;2024-01-25T13:45:20;12.70;99.90
20845;DHT22;10583;49.084;8.646;2024-01-25T13:47:48;12.80;99.90
20845;DHT22;10583;49.084;8.646;2024-01-25T13:50:15;12.90;99.90
20845;DHT22;10583;49.084;8.646;2024-01-25T13:52:41;12.90;99.90
20845;DHT22;10583;49.084;8.646;2024-01-25T13:55:08;12.80;99.90
20845;DHT22;10583;49.084;8.646;2024-01-25T13:57:35;12.80;99.90
20845;DHT22;10583;49.084;8.646;2024-01-25T14:00:02;12.90;99.90
20845;DHT22;10583;49.084;8.646;2024-01-25T14:02:31;12.80;99.90
20845;DHT22;10583;49.084;8.646;2024-01-25T14:04:59;12.70;99.90
20845;DHT22;10583;49.084;8.646;2024-01-25T14:07:26;12.80;99.90
20845;DHT22;10583;49.084;8.646;2024-01-25T14:09:53;12.70;99.90
20845;DHT22;10583;49.084;8.646;2024-01-25T14:12:20;12.50;99.90
20845;DHT22;10583;49.084;8.646;2024-01-25T14:14:46;12.20;99.90
20845;DHT22;10583;49.084;8.646;2024-01-25T14:17:13;12.10;99.90
20845;DHT22;10583;49.084;8.646;2024-01-25T14:19:40;12.00;99.90
20845;DHT22;10583;49.084;8.646;2024-01-25T14:22:08;11.90;99.90
20845;DHT22;10583;49.084;8.646;2024-01-25T14:24:34;11.90;99.90
20845;DHT22;10583;49.084;8.646;2024-01-25T14:27:01;11.90;99.90
20845;DHT22;10583;49.084;8.646;2024-01-25T14:29:28;11.90;99.90
20845;DHT22;10583;49.084;8.646;2024-01-25T14:31:57;11.80;99.90
20845;DHT22;10583;49.084;8.646;2024-01-25T14:34:24;11.70;99.90
20845;DHT22;10583;49.084;8.646;2024-01-25T14:36:51;11.70;99.90
20845;DHT22;10583;49.084;8.646;2024-01-25T14:39:19;11.70;99.90
20845;DHT22;10583;49.084;8.646;2024-01-25T14:41:46;11.60;99.90
20845;DHT22;10583;49.084;8.646;2024-01-25T14:44:13;11.60;99.90
20845;DHT22;10583;49.084;8.646;2024-01-25T14:46:40;11.50;99.90
20845;DHT22;10583;49.084;8.646;2024-01-25T14:49:06;11.60;99.90
20845;DHT22;10583;49.084;8.646;2024-01-25T14:51:33;11.50;99.90
20845;DHT22;10583;49.084;8.646;2024-01-25T14:53:59;11.50;99.90
20845;DHT22;10583;49.084;8.646;2024-01-25T14:56:27;11.50;99.90
20845;DHT22;10583;49.084;8.646;2024-01-25T14:58:54;11.40;99.90
20845;DHT22;10583;49.084;8.646;2024-01-25T15:01:21;11.40;99.90
20845;DHT22;10583;49.084;8.646;2024-01-25T15:03:54;11.30;99.90
20845;DHT22;10583;49.084;8.646;2024-01-25T15:06:21;11.20;99.90
20845;DHT22;10583;49.084;8.646;2024-01-25T15:08:48;11.20;99.90
20845;DHT22;10583;49.084;8.646;2024-01-25T15:11:14;11.20;99.90
20845;DHT22;10583;49.084;8.646;2024-01-25T15:13:42;11.20;99.90
20845;DHT22;10583;49.084;8.646;2024-01-25T15:16:09;11.20;99.90
20845;DHT22;10583;49.084;8.646;2024-01-25T15:18:36;11.20;99.90
20845;DHT22;10583;49.084;8.646;2024-01-25T15:21:03;11.20;99.90
20845;DHT22;10583;49.084;8.646;2024-01-25T15:23:29;11.20;99.90
20845;DHT22;10583;49.084;8.646;2024-01-25T15:25:56;11.10;99.90
20845;DHT22;10583;49.084;8.646;2024-01-25T15:28:22;11.00;99.90
20845;DHT22;10583;49.084;8.646;2024-01-25T15:30:50;11.00;99.90
20845;DHT22;10583;49.084;8.646;2024-01-25T15:33:17;10.90;99.90
20845;DHT22;10583;49.084;8.646;2024-01-25T15:35:44;10.90;99.90
20845;DHT22;10583;49.084;8.646;2024-01-25T15:38:11;10.90;99.90